This is the latest recevied weather packets stored in our database for station/object HA6IFZ-10. If no packets are shown the sender has not sent any weather packets the latest 10 day(s).
| Time | Temp. | Humidity | Pressure | Rain* | Wind** | Luminosity | Snow |
|---|---|---|---|---|---|---|---|
| 1787999589 | 29.44° C | 32% | 1023.2 hPa | - | - | - | - |
| 1787998689 | 28.89° C | 33% | 1023.1 hPa | - | - | - | - |
| 1787997789 | 28.89° C | 34% | 1022.9 hPa | - | - | - | - |
| 1787996889 | 29.44° C | 33% | 1022.8 hPa | - | - | - | - |
| 1787995989 | 28.33° C | 37% | 1023 hPa | - | - | - | - |
| 1787995089 | 28.89° C | 40% | 1023.1 hPa | - | - | - | - |
| 1787994189 | 27.78° C | 42% | 1023.2 hPa | - | - | - | - |
| 1787993289 | 27.78° C | 45% | 1023.2 hPa | - | - | - | - |
| 1787992389 | 27.22° C | 45% | 1023.2 hPa | - | - | - | - |
| 1787991489 | 26.67° C | 47% | 1023.2 hPa | - | - | - | - |
| 1787990588 | 26.67° C | 47% | 1023.3 hPa | - | - | - | - |
| 1787989688 | 26.67° C | 48% | 1022.9 hPa | - | - | - | - |
| 1787988788 | 26.11° C | 48% | 1022.5 hPa | - | - | - | - |
| 1787987888 | 26.11° C | 49% | 1022.5 hPa | - | - | - | - |
| 1787986988 | 26.11° C | 48% | 1022.5 hPa | - | - | - | - |
| 1787986088 | 25° C | 51% | 1022.4 hPa | - | - | - | - |
| 1787985188 | 23.89° C | 51% | 1022.4 hPa | - | - | - | - |
| 1787984288 | 23.33° C | 51% | 1022.4 hPa | - | - | - | - |
| 1787983388 | 21.67° C | 57% | 1022.1 hPa | - | - | - | - |
| 1787982487 | 21.67° C | 59% | 1022.2 hPa | - | - | - | - |
| 1787981587 | 21.67° C | 61% | 1022.2 hPa | - | - | - | - |
| 1787980687 | 21.11° C | 67% | 1021.7 hPa | - | - | - | - |
| 1787978890 | 21.67° C | 62% | 1022.3 hPa | - | - | - | - |
| 1787977990 | 20.56° C | 67% | 1022.5 hPa | - | - | - | - |
| 1787977090 | 20.56° C | 66% | 1023.2 hPa | - | - | - | - |
* Rain since midnight (hover to see other rain measurements)
** Current wind speed in m/s (hover to see current wind gust speed)